Saint-Jean-Baptiste, Canada
Current Conditions -  °F | °C
As of 1:00 AM on Friday 28 Nov 2014 (Local Time) from CYQB Reporting Station
Scattered Clouds Scattered Clouds  
Wind Chill: 16°   Ceiling: Unl
Heat Index: 23°   Visibility: 15mi
Dew Point: 12°   Wind: 6mph
Humidity: 63%   Direction: 60°ENE
Pressure: 30.04"   Gusts: NA
Location:  47.12°N, 70.18°W
Report Text: CYQB 280600Z 06005KT 15SM SCT140 M05/M11 A3004 RMK AC4 SLP176
Loading
Personal Weather Stations






























Interactive Weather Map New forecast layout! Learn more

10-Day Weather Forecast

Advertisements
Track Severe Weather on mobile